createdAt,value
2022-09-25T00:02:07.882Z,22.85
2022-09-25T00:04:36.659Z,21.67
2022-09-25T00:07:05.218Z,19.70
2022-09-25T00:09:33.804Z,21.55
2022-09-25T00:12:02.984Z,20.88
2022-09-25T00:14:31.544Z,20.88
2022-09-25T00:17:01.568Z,20.17
2022-09-25T00:19:44.348Z,20.48
2022-09-25T00:22:12.915Z,21.23
2022-09-25T00:24:41.647Z,21.05
2022-09-25T00:27:10.252Z,20.08
2022-09-25T00:29:41.221Z,20.17
2022-09-25T00:32:13.300Z,19.50
2022-09-25T00:34:42.195Z,20.42
2022-09-25T00:37:10.943Z,18.98
2022-09-25T00:39:39.772Z,20.02
2022-09-25T00:42:08.306Z,19.27
2022-09-25T00:45:01.018Z,19.02
2022-09-25T00:47:49.916Z,20.15
2022-09-25T00:50:37.169Z,19.60
2022-09-25T00:53:13.787Z,20.83
2022-09-25T00:55:46.266Z,19.77
2022-09-25T00:58:21.022Z,19.27
2022-09-25T01:00:50.366Z,19.73
2022-09-25T01:03:22.105Z,19.80
2022-09-25T01:05:51.935Z,20.05
2022-09-25T01:08:26.665Z,20.73
2022-09-25T01:10:55.847Z,20.50
2022-09-25T01:13:24.772Z,20.73
2022-09-25T01:16:06.149Z,20.25
2022-09-25T01:18:54.297Z,19.55
2022-09-25T01:21:40.930Z,20.52
2022-09-25T01:24:43.843Z,19.70
2022-09-25T01:27:45.645Z,19.25
2022-09-25T01:30:19.182Z,20.25
2022-09-25T01:33:02.056Z,20.42
2022-09-25T01:35:44.965Z,21.23
2022-09-25T01:38:27.149Z,21.35
2022-09-25T01:41:11.338Z,20.75
2022-09-25T01:43:46.092Z,21.58
2022-09-25T01:46:21.880Z,20.42
2022-09-25T01:48:59.055Z,21.63
2022-09-25T01:51:35.678Z,20.38
2022-09-25T01:54:11.359Z,20.92
2022-09-25T01:56:49.274Z,20.75
2022-09-25T01:59:25.942Z,20.60
2022-09-25T02:02:00.645Z,20.15
2022-09-25T02:04:36.599Z,20.80
2022-09-25T02:07:12.161Z,20.40
2022-09-25T02:09:47.218Z,20.73
2022-09-25T02:12:22.153Z,20.25
2022-09-25T02:14:55.454Z,20.52
2022-09-25T02:17:56.300Z,20.40
2022-09-25T02:20:34.415Z,21.40
2022-09-25T02:23:18.801Z,19.80
2022-09-25T02:25:56.324Z,19.58
2022-09-25T02:28:25.153Z,19.35
2022-09-25T02:30:59.273Z,20.40
2022-09-25T02:33:29.736Z,19.75
2022-09-25T02:36:04.388Z,20.50
2022-09-25T02:38:35.753Z,20.50
2022-09-25T02:41:21.902Z,20.63
2022-09-25T02:44:08.409Z,19.25
2022-09-25T02:46:49.530Z,20.80
2022-09-25T02:49:30.746Z,20.90
2022-09-25T02:52:10.592Z,20.58
2022-09-25T02:54:47.569Z,18.77
2022-09-25T02:57:26.541Z,21.23
2022-09-25T03:00:01.758Z,20.50
2022-09-25T03:02:34.708Z,19.70
2022-09-25T03:05:08.393Z,20.33
2022-09-25T03:07:52.361Z,19.77
2022-09-25T03:10:22.178Z,20.08
2022-09-25T03:12:50.827Z,20.25
2022-09-25T03:15:19.831Z,20.55
2022-09-25T03:17:51.158Z,21.42
2022-09-25T03:20:21.272Z,21.02
2022-09-25T03:22:49.995Z,19.65
2022-09-25T03:25:18.528Z,20.10
2022-09-25T03:27:48.593Z,20.40
2022-09-25T03:30:17.560Z,20.35
2022-09-25T03:32:46.160Z,20.25
2022-09-25T03:35:14.826Z,20.92
2022-09-25T03:37:44.897Z,19.98
2022-09-25T03:40:13.483Z,19.15
2022-09-25T03:42:43.360Z,21.15
2022-09-25T03:45:12.408Z,20.63
2022-09-25T03:47:40.926Z,21.83
2022-09-25T03:50:10.770Z,21.50
2022-09-25T03:52:39.590Z,21.00
2022-09-25T03:55:12.028Z,21.27
2022-09-25T03:57:41.677Z,20.73
2022-09-25T04:00:11.608Z,21.08
2022-09-25T04:02:42.963Z,21.60
2022-09-25T04:05:12.109Z,21.05
2022-09-25T04:07:40.957Z,21.20
2022-09-25T04:10:11.663Z,22.23
2022-09-25T04:12:41.738Z,21.15
2022-09-25T04:15:11.616Z,20.98
2022-09-25T04:17:40.151Z,21.00
2022-09-25T04:20:10.330Z,22.02
2022-09-25T04:22:39.032Z,21.95
2022-09-25T04:25:09.512Z,19.83
2022-09-25T04:27:39.644Z,20.20
2022-09-25T04:30:10.825Z,21.58
2022-09-25T04:33:11.639Z,20.70
2022-09-25T04:35:41.519Z,20.33
2022-09-25T04:38:10.367Z,20.27
2022-09-25T04:40:39.580Z,21.63
2022-09-25T04:43:09.755Z,20.17
2022-09-25T04:45:38.327Z,20.33
2022-09-25T04:48:07.412Z,19.63
2022-09-25T04:50:36.488Z,21.95
2022-09-25T04:53:05.174Z,23.15
2022-09-25T04:55:33.869Z,24.75
2022-09-25T04:58:03.185Z,24.65
2022-09-25T05:00:34.063Z,25.33
2022-09-25T05:03:04.861Z,23.65
2022-09-25T05:05:35.272Z,24.95
2022-09-25T05:08:05.117Z,26.13
2022-09-25T05:10:35.411Z,26.27
2022-09-25T05:13:06.267Z,27.02
2022-09-25T05:15:37.323Z,26.33
2022-09-25T05:18:17.591Z,25.38
2022-09-25T05:20:46.481Z,26.20
2022-09-25T05:23:15.338Z,25.17
2022-09-25T05:25:44.175Z,25.35
2022-09-25T05:28:12.807Z,24.65
2022-09-25T05:30:43.728Z,25.13
2022-09-25T05:33:12.215Z,25.23
2022-09-25T05:35:40.837Z,25.77
2022-09-25T05:38:09.796Z,25.20
2022-09-25T05:40:39.385Z,24.08
2022-09-25T05:43:08.068Z,25.15
2022-09-25T05:45:36.895Z,24.10
2022-09-25T05:48:09.391Z,23.45
2022-09-25T05:50:38.153Z,23.80
2022-09-25T05:53:07.149Z,23.95
2022-09-25T05:55:35.804Z,23.52
2022-09-25T05:58:06.447Z,23.73
2022-09-25T06:00:35.064Z,22.80
2022-09-25T06:03:04.014Z,24.35
2022-09-25T06:05:34.136Z,25.23
2022-09-25T06:08:03.617Z,23.13
2022-09-25T06:10:32.817Z,23.98
2022-09-25T06:13:04.950Z,23.70
2022-09-25T06:15:37.933Z,23.67
2022-09-25T06:18:08.988Z,24.25
2022-09-25T06:20:39.165Z,25.13
2022-09-25T06:23:07.993Z,23.75
2022-09-25T06:25:36.992Z,25.27
2022-09-25T06:28:06.416Z,24.27
2022-09-25T06:30:38.283Z,24.73
2022-09-25T06:33:12.793Z,24.10
2022-09-25T06:35:46.458Z,23.98
2022-09-25T06:38:16.821Z,23.90
2022-09-25T06:40:47.443Z,23.25
2022-09-25T06:43:17.854Z,23.55
2022-09-25T06:45:51.292Z,23.67
2022-09-25T06:48:22.221Z,23.13
2022-09-25T06:50:55.229Z,23.33
2022-09-25T06:53:26.864Z,23.70
2022-09-25T06:55:59.937Z,23.15
2022-09-25T06:58:30.670Z,23.33
2022-09-25T07:01:00.139Z,22.58
2022-09-25T07:03:46.256Z,24.05
2022-09-25T07:06:19.638Z,22.13
2022-09-25T07:08:49.597Z,23.17
2022-09-25T07:11:21.710Z,23.00
2022-09-25T07:13:52.362Z,23.23
2022-09-25T07:16:23.484Z,22.83
2022-09-25T07:18:55.395Z,22.35
2022-09-25T07:21:27.899Z,24.48
2022-09-25T07:23:58.288Z,22.15
2022-09-25T07:26:29.923Z,22.80
2022-09-25T07:29:01.425Z,22.38
2022-09-25T07:31:33.406Z,22.17
2022-09-25T07:34:09.225Z,21.35
2022-09-25T07:36:42.660Z,22.45
2022-09-25T07:39:16.077Z,22.58
2022-09-25T07:41:47.662Z,22.25
2022-09-25T07:44:37.467Z,22.05
2022-09-25T07:47:05.434Z,22.15
2022-09-25T07:49:35.045Z,22.35
2022-09-25T07:52:06.696Z,22.20
2022-09-25T07:54:37.823Z,22.20
2022-09-25T07:57:06.664Z,22.52
2022-09-25T07:59:35.270Z,21.98
2022-09-25T08:02:05.011Z,21.88
2022-09-25T08:04:33.742Z,21.67
2022-09-25T08:07:02.345Z,23.50
2022-09-25T08:09:32.526Z,21.08
2022-09-25T08:12:01.105Z,20.33
2022-09-25T08:14:29.746Z,22.10
2022-09-25T08:16:58.524Z,20.15
2022-09-25T08:19:28.028Z,19.60
2022-09-25T08:21:56.689Z,19.65
2022-09-25T08:24:25.503Z,19.42
2022-09-25T08:26:55.629Z,19.63
2022-09-25T08:29:24.793Z,20.85
2022-09-25T08:31:53.886Z,18.60
2022-09-25T08:34:39.904Z,18.17
2022-09-25T08:37:10.389Z,16.58
2022-09-25T08:39:39.083Z,19.30
2022-09-25T08:42:22.119Z,17.30
2022-09-25T08:45:21.018Z,16.02
2022-09-25T08:48:12.362Z,17.00
2022-09-25T08:50:41.377Z,17.40
2022-09-25T08:53:24.074Z,17.40
2022-09-25T08:56:12.423Z,16.98
2022-09-25T08:58:47.795Z,16.25
2022-09-25T09:01:22.800Z,16.83
2022-09-25T09:03:58.673Z,17.80
2022-09-25T09:06:30.388Z,18.10
2022-09-25T09:09:14.830Z,16.15
2022-09-25T09:11:50.163Z,16.58
2022-09-25T09:14:23.515Z,18.38
2022-09-25T09:17:01.143Z,18.08
2022-09-25T09:19:30.165Z,17.35
2022-09-25T09:22:10.304Z,17.23
2022-09-25T09:24:55.835Z,16.63
2022-09-25T09:27:43.355Z,16.80
2022-09-25T09:30:18.768Z,16.33
2022-09-25T09:33:20.041Z,16.55
2022-09-25T09:36:05.482Z,16.52
2022-09-25T09:38:48.596Z,16.02
2022-09-25T09:41:39.110Z,17.48
2022-09-25T09:44:40.418Z,16.35
2022-09-25T09:47:33.802Z,16.95
2022-09-25T09:50:22.543Z,16.70
2022-09-25T09:52:59.554Z,15.98
2022-09-25T09:55:40.210Z,16.00
2022-09-25T09:58:22.124Z,15.38
2022-09-25T10:00:52.750Z,15.43
2022-09-25T10:03:29.148Z,14.70
2022-09-25T10:06:02.908Z,14.57
2022-09-25T10:08:31.832Z,13.75
2022-09-25T10:11:05.164Z,13.55
2022-09-25T10:13:39.371Z,12.10
2022-09-25T10:16:13.632Z,12.55
2022-09-25T10:18:50.579Z,10.75
2022-09-25T10:21:23.518Z,9.43
2022-09-25T10:23:55.047Z,9.88
2022-09-25T10:26:30.631Z,9.65
2022-09-25T10:29:01.555Z,9.23
2022-09-25T10:31:33.551Z,9.15
2022-09-25T10:34:22.245Z,11.52
2022-09-25T10:36:54.360Z,9.90
2022-09-25T10:39:46.649Z,9.50
2022-09-25T10:42:41.349Z,9.45
2022-09-25T10:45:33.052Z,9.10
2022-09-25T10:48:19.978Z,10.38
2022-09-25T10:51:08.903Z,9.63
2022-09-25T10:53:38.537Z,6.82
2022-09-25T10:56:12.958Z,6.57
2022-09-25T10:58:47.772Z,6.65
2022-09-25T11:01:17.335Z,7.00
2022-09-25T11:03:53.456Z,7.82
2022-09-25T11:06:27.622Z,7.38
2022-09-25T11:09:07.957Z,6.72
2022-09-25T11:11:39.356Z,7.35
2022-09-25T11:14:21.033Z,6.50
2022-09-25T11:16:54.070Z,6.55
2022-09-25T11:19:29.694Z,7.38
2022-09-25T11:22:14.686Z,7.15
2022-09-25T11:25:01.272Z,6.38
2022-09-25T11:27:39.939Z,6.15
2022-09-25T11:30:16.513Z,6.32
2022-09-25T11:32:55.659Z,5.93
2022-09-25T11:35:43.106Z,6.55
2022-09-25T11:38:44.296Z,6.43
2022-09-25T11:41:24.353Z,7.03
2022-09-25T11:44:13.737Z,7.00
2022-09-25T11:46:56.693Z,7.18
2022-09-25T11:49:29.145Z,7.32
2022-09-25T11:52:28.981Z,7.97
2022-09-25T11:55:34.799Z,7.43
2022-09-25T11:58:31.843Z,6.55
2022-09-25T12:01:17.249Z,6.53
2022-09-25T12:04:24.704Z,6.68
2022-09-25T12:07:23.919Z,6.30
2022-09-25T12:10:25.073Z,6.15
2022-09-25T12:13:05.156Z,5.82
2022-09-25T12:16:02.932Z,5.07
2022-09-25T12:19:01.830Z,5.82
2022-09-25T12:21:41.537Z,5.57
2022-09-25T12:24:32.629Z,5.20
2022-09-25T12:27:15.790Z,4.90
2022-09-25T12:30:07.510Z,4.85
2022-09-25T12:32:56.357Z,6.32
2022-09-25T12:35:46.455Z,6.03
2022-09-25T12:38:29.120Z,6.20
2022-09-25T12:41:18.028Z,6.88
2022-09-25T12:43:54.957Z,6.93
2022-09-25T12:46:31.925Z,6.50
2022-09-25T12:49:12.981Z,7.03
2022-09-25T12:51:47.282Z,6.82
2022-09-25T12:54:26.861Z,6.32
2022-09-25T12:57:01.575Z,5.95
2022-09-25T12:59:45.433Z,6.57
2022-09-25T13:02:27.043Z,6.47
2022-09-25T13:05:09.828Z,7.13
2022-09-25T13:07:50.531Z,6.05
2022-09-25T13:10:34.427Z,5.85
2022-09-25T13:13:12.178Z,6.30
2022-09-25T13:15:44.425Z,6.57
2022-09-25T13:18:19.861Z,6.60
2022-09-25T13:20:51.851Z,6.65
2022-09-25T13:23:41.519Z,6.47
2022-09-25T13:26:14.158Z,6.75
2022-09-25T13:28:57.398Z,6.75
2022-09-25T13:31:32.138Z,6.32
2022-09-25T13:34:08.055Z,6.22
2022-09-25T13:36:42.801Z,5.60
2022-09-25T13:39:44.430Z,6.20
2022-09-25T13:42:25.631Z,5.82
2022-09-25T13:45:29.283Z,5.90
2022-09-25T13:48:09.883Z,5.85
2022-09-25T13:50:42.854Z,6.18
2022-09-25T13:53:34.952Z,6.28
2022-09-25T13:56:47.169Z,6.60
2022-09-25T13:59:39.547Z,6.00
2022-09-25T14:02:43.911Z,5.85
2022-09-25T14:05:21.694Z,6.35
2022-09-25T14:07:56.031Z,6.85
2022-09-25T14:10:27.213Z,6.30
2022-09-25T14:12:56.489Z,6.07
2022-09-25T14:15:33.032Z,6.85
2022-09-25T14:18:06.555Z,6.82
2022-09-25T14:20:41.774Z,6.30
2022-09-25T14:23:23.247Z,6.60
2022-09-25T14:25:59.799Z,6.25
2022-09-25T14:28:31.252Z,6.07
2022-09-25T14:31:27.144Z,6.10
2022-09-25T14:34:31.236Z,6.15
2022-09-25T14:37:25.549Z,6.65
2022-09-25T14:40:06.707Z,5.78
2022-09-25T14:43:04.156Z,5.80
2022-09-25T14:46:00.329Z,6.30
2022-09-25T14:48:38.607Z,5.78
2022-09-25T14:51:12.223Z,6.25
2022-09-25T14:53:48.552Z,6.18
2022-09-25T14:56:17.517Z,6.63
2022-09-25T14:58:51.015Z,6.25
2022-09-25T15:01:29.481Z,6.45
2022-09-25T15:04:02.934Z,5.93
2022-09-25T15:06:34.958Z,7.03
2022-09-25T15:09:29.500Z,7.18
2022-09-25T15:11:58.335Z,8.38
2022-09-25T15:14:26.897Z,8.02
2022-09-25T15:17:13.202Z,7.95
2022-09-25T15:19:47.358Z,8.25
2022-09-25T15:22:23.331Z,8.23
2022-09-25T15:24:58.375Z,7.82
2022-09-25T15:27:28.260Z,7.90
2022-09-25T15:30:00.254Z,8.00
2022-09-25T15:32:38.335Z,7.25
2022-09-25T15:35:18.277Z,8.25
2022-09-25T15:37:48.629Z,8.18
2022-09-25T15:40:25.725Z,7.53
2022-09-25T15:42:54.977Z,8.02
2022-09-25T15:45:46.182Z,7.68
2022-09-25T15:48:33.917Z,7.28
2022-09-25T15:51:14.986Z,8.40
2022-09-25T15:53:52.885Z,8.50
2022-09-25T15:56:27.352Z,8.40
2022-09-25T15:58:59.945Z,8.60
2022-09-25T16:01:51.488Z,8.60
2022-09-25T16:04:40.410Z,8.35
2022-09-25T16:07:24.953Z,8.13
2022-09-25T16:09:57.230Z,8.63
2022-09-25T16:12:35.542Z,8.98
2022-09-25T16:15:45.774Z,8.98
2022-09-25T16:18:39.590Z,9.63
2022-09-25T16:21:23.562Z,8.40
2022-09-25T16:23:59.591Z,8.55
2022-09-25T16:26:37.597Z,9.07
2022-09-25T16:29:20.724Z,9.35
2022-09-25T16:31:53.566Z,8.80
2022-09-25T16:34:28.413Z,8.48
2022-09-25T16:37:01.034Z,8.95
2022-09-25T16:39:35.142Z,8.60
2022-09-25T16:42:35.679Z,9.63
2022-09-25T16:45:17.562Z,9.23
2022-09-25T16:47:49.490Z,10.05
2022-09-25T16:50:20.390Z,10.63
2022-09-25T16:52:50.207Z,10.95
2022-09-25T16:55:23.642Z,10.00
2022-09-25T16:57:54.148Z,11.15
2022-09-25T17:00:27.413Z,11.50
2022-09-25T17:02:56.790Z,10.80
2022-09-25T17:05:29.497Z,11.77
2022-09-25T17:08:03.644Z,13.20
2022-09-25T17:10:33.705Z,12.45
2022-09-25T17:13:03.806Z,13.25
2022-09-25T17:15:37.393Z,13.98
2022-09-25T17:18:15.529Z,14.20
2022-09-25T17:20:44.298Z,13.32
2022-09-25T17:23:15.298Z,14.27
2022-09-25T17:25:48.402Z,13.23
2022-09-25T17:28:17.976Z,13.73
2022-09-25T17:30:47.942Z,14.80
2022-09-25T17:33:19.045Z,14.80
2022-09-25T17:35:52.131Z,14.73
2022-09-25T17:38:21.368Z,14.07
2022-09-25T17:40:53.341Z,15.20
2022-09-25T17:43:22.204Z,15.82
2022-09-25T17:45:54.536Z,14.20
2022-09-25T17:48:27.402Z,17.27
2022-09-25T17:50:59.382Z,18.52
2022-09-25T17:53:31.220Z,19.17
2022-09-25T17:56:01.874Z,18.55
2022-09-25T17:58:32.621Z,17.10
2022-09-25T18:01:06.723Z,18.73
2022-09-25T18:03:35.618Z,20.88
2022-09-25T18:06:05.301Z,21.25
2022-09-25T18:08:34.140Z,24.83
2022-09-25T18:11:03.014Z,23.20
2022-09-25T18:13:31.633Z,22.23
2022-09-25T18:16:03.571Z,21.92
2022-09-25T18:18:46.156Z,22.95
2022-09-25T18:21:37.980Z,21.25
2022-09-25T18:24:07.181Z,20.75
2022-09-25T18:26:36.049Z,21.33
2022-09-25T18:29:05.241Z,20.75
2022-09-25T18:31:35.543Z,19.98
2022-09-25T18:34:04.407Z,20.13
2022-09-25T18:36:32.995Z,21.02
2022-09-25T18:39:01.601Z,19.90
2022-09-25T18:41:31.098Z,19.60
2022-09-25T18:43:59.725Z,18.48
2022-09-25T18:46:28.422Z,20.02
2022-09-25T18:48:59.606Z,19.23
2022-09-25T18:51:28.287Z,19.35
2022-09-25T18:53:56.941Z,19.15
2022-09-25T18:56:27.177Z,19.67
2022-09-25T18:58:56.009Z,21.27
2022-09-25T19:01:24.872Z,22.30
2022-09-25T19:03:54.280Z,21.33
2022-09-25T19:06:24.292Z,23.35
2022-09-25T19:08:54.441Z,22.42
2022-09-25T19:11:24.324Z,23.98
2022-09-25T19:13:53.061Z,23.42
2022-09-25T19:16:22.746Z,24.75
2022-09-25T19:18:51.798Z,23.77
2022-09-25T19:21:24.617Z,23.60
2022-09-25T19:23:54.351Z,22.98
2022-09-25T19:26:25.914Z,23.48
2022-09-25T19:28:55.632Z,22.23
2022-09-25T19:31:27.497Z,21.55
2022-09-25T19:33:58.031Z,20.15
2022-09-25T19:36:31.339Z,20.85
2022-09-25T19:39:01.955Z,20.67
2022-09-25T19:41:33.435Z,20.83
2022-09-25T19:44:12.949Z,20.83
2022-09-25T19:46:43.165Z,20.48
2022-09-25T19:49:12.888Z,21.63
2022-09-25T19:51:44.230Z,20.50
2022-09-25T19:54:15.935Z,20.27
2022-09-25T19:56:46.230Z,19.25
2022-09-25T19:59:17.519Z,17.58
2022-09-25T20:01:46.380Z,20.92
2022-09-25T20:04:19.049Z,20.35
2022-09-25T20:06:50.601Z,20.50
2022-09-25T20:09:19.585Z,21.33
2022-09-25T20:11:48.413Z,21.13
2022-09-25T20:14:20.409Z,20.85
2022-09-25T20:16:49.112Z,20.83
2022-09-25T20:19:19.338Z,22.65
2022-09-25T20:21:48.515Z,23.90
2022-09-25T20:24:20.081Z,24.35
2022-09-25T20:26:49.247Z,23.05
2022-09-25T20:29:19.799Z,23.33
2022-09-25T20:31:48.751Z,22.65
2022-09-25T20:34:21.833Z,25.95
2022-09-25T20:36:50.799Z,23.50
2022-09-25T20:39:21.608Z,23.63
2022-09-25T20:41:51.084Z,24.05
2022-09-25T20:44:19.752Z,24.25
2022-09-25T20:46:48.762Z,24.73
2022-09-25T20:49:20.102Z,24.55
2022-09-25T20:51:48.640Z,24.42
2022-09-25T20:54:17.544Z,24.33
2022-09-25T20:56:47.575Z,24.15
2022-09-25T20:59:18.201Z,24.05
2022-09-25T21:01:47.266Z,26.17
2022-09-25T21:04:18.094Z,25.48
2022-09-25T21:06:46.865Z,25.13
2022-09-25T21:09:22.720Z,26.33
2022-09-25T21:11:53.192Z,25.67
2022-09-25T21:14:25.043Z,26.42
2022-09-25T21:16:56.308Z,24.05
2022-09-25T21:19:25.354Z,25.48
2022-09-25T21:21:53.913Z,26.02
2022-09-25T21:24:23.203Z,27.20
2022-09-25T21:26:53.454Z,26.67
2022-09-25T21:29:22.237Z,26.95
2022-09-25T21:31:51.228Z,27.67
2022-09-25T21:34:20.687Z,25.80
2022-09-25T21:36:50.119Z,26.63
2022-09-25T21:39:21.309Z,27.67
2022-09-25T21:41:50.932Z,27.05
2022-09-25T21:44:24.968Z,26.77
2022-09-25T21:46:53.525Z,27.70
2022-09-25T21:49:23.638Z,27.13
2022-09-25T21:51:52.466Z,25.77
2022-09-25T21:54:21.883Z,26.75
2022-09-25T21:56:50.882Z,26.42
2022-09-25T21:59:21.053Z,26.48
2022-09-25T22:01:50.296Z,25.08
2022-09-25T22:04:19.267Z,25.45
2022-09-25T22:06:49.253Z,27.05
2022-09-25T22:09:20.732Z,25.08
2022-09-25T22:11:51.233Z,26.98
2022-09-25T22:14:22.538Z,25.42
2022-09-25T22:16:53.312Z,25.63
2022-09-25T22:19:25.398Z,25.65
2022-09-25T22:21:56.735Z,24.30
2022-09-25T22:24:25.881Z,26.25
2022-09-25T22:26:56.736Z,25.17
2022-09-25T22:29:26.979Z,24.42
2022-09-25T22:31:55.802Z,24.85
2022-09-25T22:34:26.322Z,24.10
2022-09-25T22:36:59.573Z,24.13
2022-09-25T22:39:30.648Z,23.63
2022-09-25T22:41:59.366Z,24.38
2022-09-25T22:44:29.501Z,23.58
2022-09-25T22:47:01.382Z,23.67
2022-09-25T22:49:32.186Z,24.48
2022-09-25T22:52:01.123Z,24.27
2022-09-25T22:54:29.715Z,23.27
2022-09-25T22:56:58.289Z,24.38
2022-09-25T22:59:27.069Z,24.00
2022-09-25T23:01:57.189Z,23.27
2022-09-25T23:04:26.766Z,23.80
2022-09-25T23:06:55.568Z,23.17
2022-09-25T23:09:26.229Z,21.83
2022-09-25T23:11:56.647Z,22.63
2022-09-25T23:14:31.193Z,22.83
2022-09-25T23:17:01.330Z,22.65
2022-09-25T23:19:30.295Z,22.20
2022-09-25T23:21:59.367Z,22.67
2022-09-25T23:24:28.487Z,21.35
2022-09-25T23:26:57.395Z,21.33
2022-09-25T23:29:26.033Z,21.48
2022-09-25T23:31:54.600Z,21.75
2022-09-25T23:34:25.120Z,21.02
2022-09-25T23:36:54.080Z,19.63
2022-09-25T23:39:22.585Z,19.58
2022-09-25T23:41:51.553Z,21.58
2022-09-25T23:44:20.085Z,19.42
2022-09-25T23:46:48.625Z,20.67
2022-09-25T23:49:17.523Z,20.70
2022-09-25T23:51:48.208Z,20.60
2022-09-25T23:54:18.378Z,19.80
2022-09-25T23:56:47.316Z,20.60
2022-09-25T23:59:16.113Z,19.92
